Time;durP1;ratioP1;P1;durP2;ratioP2;P2;SDS_P1;SDS_P2;PMS_P1;PMS_P2;Temp;Humidity;BMP_temperature;BMP_pressure;BME280_temperature;BME280_humidity;BME280_pressure;Samples;Min_cycle;Max_cycle;Signal;HPM_P1;HPM_P2
2022/05/14 00:00:20;;;;;;;;;;;;;;;;;;5027946;28;19932;-77
2022/05/14 00:02:46;;;;;;;;;;;;;;;;;;5012209;28;19922;-77
2022/05/14 00:05:11;;;;;;;;;;;;;;;;;;5011707;28;19918;-77
2022/05/14 00:07:37;;;;;;;;;;;;;;;;;;5012247;28;19964;-77
2022/05/14 00:10:03;;;;;;;;;;;;;;;;;;5013492;28;19926;-77
2022/05/14 00:15:12;;;;;;;;;;;;;;;;;;5014073;28;19927;-77
2022/05/14 00:17:38;;;;;;;;;;;;;;;;;;5014028;28;20008;-77
2022/05/14 00:20:04;;;;;;;;;;;;;;;;;;5014321;28;19917;-77
2022/05/14 00:22:29;;;;;;;;;;;;;;;;;;5013973;28;19918;-77
2022/05/14 00:24:55;;;;;;;;;;;;;;;;;;5012486;28;19925;-77
2022/05/14 00:27:22;;;;;;;;;;;;;;;;;;5011593;28;19917;-77
2022/05/14 00:29:47;;;;;;;;;;;;;;;;;;5011298;28;19952;-77
2022/05/14 00:32:13;;;;;;;;;;;;;;;;;;5031723;28;20326;-77
2022/05/14 00:34:38;;;;;;;;;;;;;;;;;;5015297;28;20363;-77
2022/05/14 00:37:03;;;;;;;;;;;;;;;;;;5031890;28;19917;-77
2022/05/14 00:39:29;;;;;;;;;;;;;;;;;;5032938;28;19918;-77
2022/05/14 00:41:54;;;;;;;;;;;;;;;;;;5032729;28;19917;-77
2022/05/14 00:44:19;;;;;;;;;;;;;;;;;;5031053;28;19913;-77
2022/05/14 00:46:48;;;;;;;;;;;;;;;;;;5030386;28;19923;-77
2022/05/14 00:49:15;;;;;;;;;;;;;;;;;;5030140;28;19921;-76
2022/05/14 00:51:42;;;;;;;;;;;;;;;;;;5013660;28;19972;-77
2022/05/14 00:54:11;;;;;;;;;;;;;;;;;;5033005;28;19967;-77
2022/05/14 00:56:39;;;;;;;;;;;;;;;;;;5029841;28;19924;-77
2022/05/14 00:59:06;;;;;;;;;;;;;;;;;;5036625;28;19932;-77
2022/05/14 01:01:33;;;;;;;;;;;;;;;;;;5014255;28;19952;-77
2022/05/14 01:03:58;;;;;;;;;;;;;;;;;;5037444;28;19921;-77
2022/05/14 01:06:25;;;;;;;;;;;;;;;;;;5013763;28;19925;-77
2022/05/14 01:08:50;;;;;;;;;;;;;;;;;;5020913;28;19917;-77
2022/05/14 01:11:17;;;;;;;;;;;;;;;;;;5029103;28;20264;-77
2022/05/14 01:13:45;;;;;;;;;;;;;;;;;;5020494;28;19967;-77
2022/05/14 01:16:11;;;;;;;;;;;;;;;;;;5019929;28;20339;-77
2022/05/14 01:18:39;;;;;;;;;;;;;;;;;;5015668;28;19924;-77
2022/05/14 01:21:13;;;;;;;;;;;;;;;;;;5021289;28;19917;-77
2022/05/14 01:26:27;;;;;;;;;;;;;;;;;;5038668;28;20011;-77
2022/05/14 01:26:30;;;;;;;;;;;;;;;;;;5030261;28;19918;-77
2022/05/14 01:29:12;;;;;;;;;;;;;;;;;;5022093;28;19925;-77
2022/05/14 01:31:38;;;;;;;;;;;;;;;;;;5001424;28;20008;-77
2022/05/14 01:34:08;;;;;;;;;;;;;;;;;;5001443;28;19917;-77
2022/05/14 01:36:35;;;;;;;;;;;;;;;;;;5004101;28;19924;-77
2022/05/14 01:39:00;;;;;;;;;;;;;;;;;;4997575;28;19937;-77
2022/05/14 01:41:26;;;;;;;;;;;;;;;;;;5007126;28;19933;-77
2022/05/14 01:43:51;;;;;;;;;;;;;;;;;;4998064;28;19917;-77
2022/05/14 01:46:17;;;;;;;;;;;;;;;;;;4989245;28;19925;-77
2022/05/14 01:48:44;;;;;;;;;;;;;;;;;;4996488;28;20060;-77
2022/05/14 01:51:10;;;;;;;;;;;;;;;;;;5012963;28;20354;-77
2022/05/14 01:53:36;;;;;;;;;;;;;;;;;;4990301;28;19922;-77
2022/05/14 01:56:02;;;;;;;;;;;;;;;;;;4996826;28;20012;-77
2022/05/14 01:58:38;;;;;;;;;;;;;;;;;;5005923;28;19921;-77
2022/05/14 02:01:29;;;;;;;;;;;;;;;;;;5017536;28;19928;-77
2022/05/14 02:03:58;;;;;;;;;;;;;;;;;;4996520;28;19925;-77
2022/05/14 02:06:26;;;;;;;;;;;;;;;;;;4990490;28;19917;-77
2022/05/14 02:08:52;;;;;;;;;;;;;;;;;;4996331;28;19921;-77
2022/05/14 02:11:18;;;;;;;;;;;;;;;;;;4989526;28;20261;-77
2022/05/14 02:13:47;;;;;;;;;;;;;;;;;;4996822;28;19925;-77
2022/05/14 02:16:13;;;;;;;;;;;;;;;;;;4997180;28;19961;-77
2022/05/14 02:18:39;;;;;;;;;;;;;;;;;;4997152;28;19921;-77
2022/05/14 02:21:05;;;;;;;;;;;;;;;;;;4995988;28;19917;-77
2022/05/14 02:23:31;;;;;;;;;;;;;;;;;;4977995;28;19925;-77
2022/05/14 02:25:59;;;;;;;;;;;;;;;;;;4992242;28;19918;-77
2022/05/14 02:28:24;;;;;;;;;;;;;;;;;;4971251;28;19918;-77
2022/05/14 02:30:50;;;;;;;;;;;;;;;;;;4996527;28;19921;-77
2022/05/14 02:33:15;;;;;;;;;;;;;;;;;;4990308;28;19953;-77
2022/05/14 02:35:41;;;;;;;;;;;;;;;;;;5014281;28;19917;-77
2022/05/14 02:38:07;;;;;;;;;;;;;;;;;;4998729;28;19918;-77
2022/05/14 02:40:33;;;;;;;;;;;;;;;;;;5010682;28;19928;-78
2022/05/14 02:42:58;;;;;;;;;;;;;;;;;;5016503;28;19918;-77
2022/05/14 02:45:24;;;;;;;;;;;;;;;;;;5010075;28;20441;-78
2022/05/14 02:47:50;;;;;;;;;;;;;;;;;;5000281;28;20554;-78
2022/05/14 02:50:15;;;;;;;;;;;;;;;;;;5023662;28;19921;-77
2022/05/14 02:52:41;;;;;;;;;;;;;;;;;;5014298;28;19926;-77
2022/05/14 02:55:07;;;;;;;;;;;;;;;;;;5016293;28;20008;-77
2022/05/14 02:57:33;;;;;;;;;;;;;;;;;;5012161;28;19960;-78
2022/05/14 02:59:58;;;;;;;;;;;;;;;;;;5019409;28;19987;-78
2022/05/14 03:02:24;;;;;;;;;;;;;;;;;;5011540;28;19917;-77
2022/05/14 03:04:50;;;;;;;;;;;;;;;;;;5017620;28;19917;-77
2022/05/14 03:07:16;;;;;;;;;;;;;;;;;;4989969;28;19918;-77
2022/05/14 03:09:42;;;;;;;;;;;;;;;;;;4997658;28;20012;-77
2022/05/14 03:12:09;;;;;;;;;;;;;;;;;;5013659;28;19917;-77
2022/05/14 03:14:35;;;;;;;;;;;;;;;;;;5037462;28;19921;-77
2022/05/14 03:17:01;;;;;;;;;;;;;;;;;;5032452;28;20351;-77
2022/05/14 03:19:27;;;;;;;;;;;;;;;;;;5011578;28;19917;-77
2022/05/14 03:21:53;;;;;;;;;;;;;;;;;;5034302;28;19921;-77
2022/05/14 03:24:19;;;;;;;;;;;;;;;;;;5010222;28;20294;-77
2022/05/14 03:26:44;;;;;;;;;;;;;;;;;;5017055;28;19924;-77
2022/05/14 03:29:10;;;;;;;;;;;;;;;;;;5017166;28;19928;-77
2022/05/14 03:31:36;;;;;;;;;;;;;;;;;;5021043;28;20070;-77
2022/05/14 03:34:03;;;;;;;;;;;;;;;;;;4997639;28;19923;-77
2022/05/14 03:36:28;;;;;;;;;;;;;;;;;;5015009;28;19923;-77
2022/05/14 03:38:54;;;;;;;;;;;;;;;;;;5011370;28;20011;-77
2022/05/14 03:41:24;;;;;;;;;;;;;;;;;;5006822;28;19951;-77
2022/05/14 03:43:49;;;;;;;;;;;;;;;;;;4997815;28;20343;-77
2022/05/14 03:46:15;;;;;;;;;;;;;;;;;;4989915;28;20429;-77
2022/05/14 03:48:41;;;;;;;;;;;;;;;;;;4997845;28;20028;-77
2022/05/14 03:51:07;;;;;;;;;;;;;;;;;;4997595;28;19918;-77
2022/05/14 03:53:36;;;;;;;;;;;;;;;;;;5024713;28;19922;-77
2022/05/14 03:56:01;;;;;;;;;;;;;;;;;;5014692;28;19963;-77
2022/05/14 03:58:27;;;;;;;;;;;;;;;;;;5007746;28;20350;-77
2022/05/14 04:00:53;;;;;;;;;;;;;;;;;;4997100;28;20019;-77
2022/05/14 04:03:20;;;;;;;;;;;;;;;;;;5024806;28;20006;-77
2022/05/14 04:05:45;;;;;;;;;;;;;;;;;;5033762;28;19943;-77
2022/05/14 04:08:12;;;;;;;;;;;;;;;;;;5033870;28;20394;-77
2022/05/14 04:10:39;;;;;;;;;;;;;;;;;;5029633;28;19921;-77
2022/05/14 04:13:07;;;;;;;;;;;;;;;;;;5019148;28;19923;-77
2022/05/14 04:15:33;;;;;;;;;;;;;;;;;;5014659;28;20382;-77
2022/05/14 04:17:59;;;;;;;;;;;;;;;;;;5023425;28;19917;-78
2022/05/14 04:20:26;;;;;;;;;;;;;;;;;;5033272;28;19917;-78
2022/05/14 04:22:51;;;;;;;;;;;;;;;;;;5041526;28;19924;-78
2022/05/14 04:25:18;;;;;;;;;;;;;;;;;;5016325;28;20382;-78
2022/05/14 04:27:45;;;;;;;;;;;;;;;;;;5040544;28;19923;-78
2022/05/14 04:30:12;;;;;;;;;;;;;;;;;;5024540;28;19952;-78
2022/05/14 04:32:37;;;;;;;;;;;;;;;;;;5022486;28;20357;-78
2022/05/14 04:35:03;;;;;;;;;;;;;;;;;;5005529;28;19953;-78
2022/05/14 04:37:30;;;;;;;;;;;;;;;;;;4999746;28;19973;-78
2022/05/14 04:39:56;;;;;;;;;;;;;;;;;;5008285;28;19924;-78
2022/05/14 04:42:21;;;;;;;;;;;;;;;;;;4994913;28;19917;-80
2022/05/14 04:44:47;;;;;;;;;;;;;;;;;;5016146;28;20024;-78
2022/05/14 04:47:16;;;;;;;;;;;;;;;;;;5016216;28;19944;-79
2022/05/14 04:49:46;;;;;;;;;;;;;;;;;;5015946;28;19996;-79
2022/05/14 04:52:13;;;;;;;;;;;;;;;;;;4999977;28;19926;-78
2022/05/14 04:54:39;;;;;;;;;;;;;;;;;;5016361;28;19917;-79
2022/05/14 04:57:05;;;;;;;;;;;;;;;;;;4999936;28;19925;-78
2022/05/14 04:59:31;;;;;;;;;;;;;;;;;;5010587;28;19924;-79
2022/05/14 05:04:41;;;;;;;;;;;;;;;;;;5007874;28;19918;-78
2022/05/14 05:07:07;;;;;;;;;;;;;;;;;;5012493;28;20368;-79
2022/05/14 05:09:32;;;;;;;;;;;;;;;;;;4996151;28;19941;-77
2022/05/14 05:12:02;;;;;;;;;;;;;;;;;;4993121;28;19918;-79
2022/05/14 05:14:27;;;;;;;;;;;;;;;;;;4998258;28;19925;-82
2022/05/14 05:16:53;;;;;;;;;;;;;;;;;;4996885;28;19921;-81
2022/05/14 05:19:19;;;;;;;;;;;;;;;;;;5012570;28;20386;-80
2022/05/14 05:21:49;;;;;;;;;;;;;;;;;;5019975;28;20337;-80
2022/05/14 05:24:15;;;;;;;;;;;;;;;;;;5019421;28;20393;-79
2022/05/14 05:26:40;;;;;;;;;;;;;;;;;;5019633;28;19917;-79
2022/05/14 05:29:06;;;;;;;;;;;;;;;;;;5001195;28;20375;-81
2022/05/14 05:31:32;;;;;;;;;;;;;;;;;;5011264;28;19917;-79
2022/05/14 05:33:58;;;;;;;;;;;;;;;;;;5005925;28;19925;-80
2022/05/14 05:36:24;;;;;;;;;;;;;;;;;;5016322;28;19929;-80
2022/05/14 05:38:51;;;;;;;;;;;;;;;;;;5009762;28;19918;-79
2022/05/14 05:41:18;;;;;;;;;;;;;;;;;;5036277;28;19917;-79
2022/05/14 05:43:46;;;;;;;;;;;;;;;;;;5011039;28;20334;-78
2022/05/14 05:46:12;;;;;;;;;;;;;;;;;;5007696;28;19918;-78
2022/05/14 05:48:38;;;;;;;;;;;;;;;;;;5017711;28;19918;-77
2022/05/14 05:51:04;;;;;;;;;;;;;;;;;;5021176;28;19929;-77
2022/05/14 05:59:00;;;;;;;;;;;;;;;;;;5021646;28;19961;-81
2022/05/14 06:01:28;;;;;;;;;;;;;;;;;;5020683;28;19937;-80
2022/05/14 06:03:53;;;;;;;;;;;;;;;;;;5008272;28;19917;-80
2022/05/14 06:06:19;;;;;;;;;;;;;;;;;;5010088;28;19917;-79
2022/05/14 06:08:47;;;;;;;;;;;;;;;;;;5028218;28;19918;-80
2022/05/14 06:11:13;;;;;;;;;;;;;;;;;;5010407;28;19948;-79
2022/05/14 06:13:38;;;;;;;;;;;;;;;;;;5027334;28;19983;-79
2022/05/14 06:16:04;;;;;;;;;;;;;;;;;;5024900;28;20295;-81
2022/05/14 06:18:29;;;;;;;;;;;;;;;;;;5021078;28;19921;-77
2022/05/14 06:20:55;;;;;;;;;;;;;;;;;;5018101;28;19917;-77
2022/05/14 06:23:21;;;;;;;;;;;;;;;;;;5018598;28;19918;-77
2022/05/14 06:25:46;;;;;;;;;;;;;;;;;;5017660;28;19924;-78
2022/05/14 06:28:12;;;;;;;;;;;;;;;;;;5021487;28;20599;-77
2022/05/14 06:30:41;;;;;;;;;;;;;;;;;;5016960;28;19968;-76
2022/05/14 06:33:07;;;;;;;;;;;;;;;;;;5003754;28;20320;-79
2022/05/14 06:35:33;;;;;;;;;;;;;;;;;;5003894;28;20449;-76
2022/05/14 06:37:59;;;;;;;;;;;;;;;;;;5010406;28;19917;-78
2022/05/14 06:40:25;;;;;;;;;;;;;;;;;;5028474;28;19944;-78
2022/05/14 06:42:50;;;;;;;;;;;;;;;;;;5013648;28;20013;-78
2022/05/14 06:45:16;;;;;;;;;;;;;;;;;;5016277;28;19918;-79
2022/05/14 06:47:41;;;;;;;;;;;;;;;;;;5032141;28;19917;-79
2022/05/14 06:50:08;;;;;;;;;;;;;;;;;;5009984;28;19971;-79
2022/05/14 06:52:35;;;;;;;;;;;;;;;;;;5005589;28;19944;-78
2022/05/14 06:55:01;;;;;;;;;;;;;;;;;;5006213;28;20446;-80
2022/05/14 06:57:28;;;;;;;;;;;;;;;;;;5007806;28;19963;-79
2022/05/14 06:59:53;;;;;;;;;;;;;;;;;;5024117;28;19975;-79
2022/05/14 07:02:19;;;;;;;;;;;;;;;;;;5021455;28;20389;-77
2022/05/14 07:07:29;;;;;;;;;;;;;;;;;;5047025;28;19924;-77
2022/05/14 07:09:55;;;;;;;;;;;;;;;;;;5028814;28;19921;-79
2022/05/14 07:12:20;;;;;;;;;;;;;;;;;;5047587;28;19917;-79
2022/05/14 07:14:46;;;;;;;;;;;;;;;;;;5048956;28;19963;-80
2022/05/14 07:17:16;;;;;;;;;;;;;;;;;;5031075;28;19917;-82
2022/05/14 07:19:44;;;;;;;;;;;;;;;;;;5032409;28;19917;-82
2022/05/14 07:22:13;;;;;;;;;;;;;;;;;;5032047;28;19963;-81
2022/05/14 07:24:39;;;;;;;;;;;;;;;;;;5048097;28;20393;-77
2022/05/14 07:27:04;;;;;;;;;;;;;;;;;;5046946;28;19916;-80
2022/05/14 07:29:30;;;;;;;;;;;;;;;;;;5029621;28;19927;-78
2022/05/14 07:31:57;;;;;;;;;;;;;;;;;;5026884;28;19916;-76
2022/05/14 07:34:23;;;;;;;;;;;;;;;;;;5022084;28;20294;-81
2022/05/14 07:36:48;;;;;;;;;;;;;;;;;;5003061;28;19940;-77
2022/05/14 07:39:14;;;;;;;;;;;;;;;;;;4997787;28;20233;-78
2022/05/14 07:41:41;;;;;;;;;;;;;;;;;;4996955;28;19917;-79
2022/05/14 07:44:08;;;;;;;;;;;;;;;;;;4998468;28;19917;-79
2022/05/14 07:46:36;;;;;;;;;;;;;;;;;;5014149;28;19999;-77
2022/05/14 07:49:04;;;;;;;;;;;;;;;;;;4998376;28;19918;-76
2022/05/14 07:51:30;;;;;;;;;;;;;;;;;;4998712;28;19918;-77
2022/05/14 07:53:55;;;;;;;;;;;;;;;;;;5007777;28;19917;-77
2022/05/14 07:56:20;;;;;;;;;;;;;;;;;;4996856;28;20015;-76
2022/05/14 07:58:47;;;;;;;;;;;;;;;;;;4982327;28;20383;-76
2022/05/14 08:01:13;;;;;;;;;;;;;;;;;;5002556;28;19917;-76
2022/05/14 08:03:38;;;;;;;;;;;;;;;;;;5012399;28;19918;-75
2022/05/14 08:06:04;;;;;;;;;;;;;;;;;;4996359;28;19950;-76
2022/05/14 08:08:29;;;;;;;;;;;;;;;;;;5014492;28;20058;-76
2022/05/14 08:10:55;;;;;;;;;;;;;;;;;;4996852;28;19922;-76
2022/05/14 08:13:21;;;;;;;;;;;;;;;;;;4996646;28;19992;-76
2022/05/14 08:15:48;;;;;;;;;;;;;;;;;;5014209;28;20314;-76
2022/05/14 08:18:14;;;;;;;;;;;;;;;;;;5013431;28;19945;-75
2022/05/14 08:20:39;;;;;;;;;;;;;;;;;;5014366;28;19918;-75
2022/05/14 08:25:52;;;;;;;;;;;;;;;;;;5014424;28;19968;-76
2022/05/14 08:28:18;;;;;;;;;;;;;;;;;;4996767;28;19917;-76
2022/05/14 08:30:43;;;;;;;;;;;;;;;;;;5013315;28;20358;-76
2022/05/14 08:33:08;;;;;;;;;;;;;;;;;;4980226;28;19960;-76
2022/05/14 08:35:35;;;;;;;;;;;;;;;;;;5014309;28;19957;-76
2022/05/14 08:38:00;;;;;;;;;;;;;;;;;;4996639;28;19948;-76
2022/05/14 08:40:33;;;;;;;;;;;;;;;;;;5018835;28;19917;-78
2022/05/14 08:43:03;;;;;;;;;;;;;;;;;;5017797;28;19917;-77
2022/05/14 08:45:32;;;;;;;;;;;;;;;;;;5016083;28;19917;-77
2022/05/14 08:47:59;;;;;;;;;;;;;;;;;;5014954;28;20294;-77
2022/05/14 08:50:26;;;;;;;;;;;;;;;;;;5014713;28;19922;-76
2022/05/14 08:52:55;;;;;;;;;;;;;;;;;;5013924;28;19921;-76
2022/05/14 08:55:21;;;;;;;;;;;;;;;;;;4996351;28;19929;-76
2022/05/14 08:58:19;;;;;;;;;;;;;;;;;;4996345;28;19944;-75
2022/05/14 09:00:44;;;;;;;;;;;;;;;;;;4938038;28;19951;-74
2022/05/14 09:03:10;;;;;;;;;;;;;;;;;;4995699;28;19987;-77
2022/05/14 09:05:37;;;;;;;;;;;;;;;;;;4996635;28;19968;-76
2022/05/14 09:08:02;;;;;;;;;;;;;;;;;;4996525;28;20367;-76
2022/05/14 09:10:51;;;;;;;;;;;;;;;;;;5013749;28;19922;-76
2022/05/14 09:13:19;;;;;;;;;;;;;;;;;;4995650;28;20451;-76
2022/05/14 09:15:48;;;;;;;;;;;;;;;;;;5010833;28;19917;-76
2022/05/14 09:18:19;;;;;;;;;;;;;;;;;;5017520;28;19923;-76
2022/05/14 09:20:46;;;;;;;;;;;;;;;;;;5019284;28;20396;-76
2022/05/14 09:23:23;;;;;;;;;;;;;;;;;;5019756;28;19956;-76
2022/05/14 09:25:49;;;;;;;;;;;;;;;;;;5019680;28;20015;-77
2022/05/14 09:28:27;;;;;;;;;;;;;;;;;;5018996;28;20004;-76
2022/05/14 09:30:54;;;;;;;;;;;;;;;;;;5019460;28;19935;-76
2022/05/14 09:33:35;;;;;;;;;;;;;;;;;;5009474;28;19925;-76
2022/05/14 09:36:01;;;;;;;;;;;;;;;;;;5015721;28;20368;-76
2022/05/14 09:38:27;;;;;;;;;;;;;;;;;;4998046;28;19945;-76
2022/05/14 09:40:55;;;;;;;;;;;;;;;;;;5015717;28;19918;-76
2022/05/14 09:43:20;;;;;;;;;;;;;;;;;;4997430;28;19925;-75
2022/05/14 09:45:54;;;;;;;;;;;;;;;;;;4998057;28;20016;-76
2022/05/14 09:48:21;;;;;;;;;;;;;;;;;;4982314;28;19925;-76
2022/05/14 09:50:48;;;;;;;;;;;;;;;;;;5016977;28;20424;-75
2022/05/14 09:53:13;;;;;;;;;;;;;;;;;;5012213;28;19981;-76
2022/05/14 09:55:41;;;;;;;;;;;;;;;;;;5015166;28;19924;-76
2022/05/14 09:58:30;;;;;;;;;;;;;;;;;;5015786;28;19917;-76
2022/05/14 10:01:03;;;;;;;;;;;;;;;;;;5013183;28;19917;-76
2022/05/14 10:03:38;;;;;;;;;;;;;;;;;;5009501;28;19953;-76
2022/05/14 10:06:19;;;;;;;;;;;;;;;;;;5015696;28;19971;-76
2022/05/14 10:08:53;;;;;;;;;;;;;;;;;;4999276;28;19970;-76
2022/05/14 10:11:21;;;;;;;;;;;;;;;;;;5016642;28;19928;-76
2022/05/14 10:14:09;;;;;;;;;;;;;;;;;;4997900;28;19917;-76
2022/05/14 10:16:38;;;;;;;;;;;;;;;;;;4990636;28;19944;-76
2022/05/14 10:19:15;;;;;;;;;;;;;;;;;;4995856;28;19921;-76
2022/05/14 10:21:46;;;;;;;;;;;;;;;;;;4997048;28;19918;-76
2022/05/14 10:27:28;;;;;;;;;;;;;;;;;;4997023;28;19936;-76
2022/05/14 10:30:01;;;;;;;;;;;;;;;;;;4996467;28;20667;-76
2022/05/14 10:32:30;;;;;;;;;;;;;;;;;;4996726;28;19981;-76
2022/05/14 10:35:08;;;;;;;;;;;;;;;;;;5009875;28;19957;-76
2022/05/14 10:37:46;;;;;;;;;;;;;;;;;;5006563;28;20287;-76
2022/05/14 10:40:12;;;;;;;;;;;;;;;;;;4995374;28;19960;-76
2022/05/14 10:42:37;;;;;;;;;;;;;;;;;;4989928;28;20343;-76
2022/05/14 10:45:07;;;;;;;;;;;;;;;;;;5014984;28;20336;-76
2022/05/14 10:47:33;;;;;;;;;;;;;;;;;;4988764;28;19918;-76
2022/05/14 10:50:01;;;;;;;;;;;;;;;;;;4994279;28;19928;-76
2022/05/14 10:52:27;;;;;;;;;;;;;;;;;;4996006;28;19925;-76
2022/05/14 10:54:53;;;;;;;;;;;;;;;;;;4996233;28;20419;-76
2022/05/14 10:57:18;;;;;;;;;;;;;;;;;;4978712;28;19914;-76
2022/05/14 11:00:25;;;;;;;;;;;;;;;;;;4996347;28;20277;-76
2022/05/14 11:02:59;;;;;;;;;;;;;;;;;;4946891;28;19924;-76
2022/05/14 11:05:35;;;;;;;;;;;;;;;;;;4978775;28;20379;-75
2022/05/14 11:08:11;;;;;;;;;;;;;;;;;;4996099;28;19968;-76
2022/05/14 11:10:37;;;;;;;;;;;;;;;;;;5010204;28;20327;-76
2022/05/14 11:13:23;;;;;;;;;;;;;;;;;;5015780;28;20008;-76
2022/05/14 11:15:58;;;;;;;;;;;;;;;;;;5015487;28;19921;-76
2022/05/14 11:18:24;;;;;;;;;;;;;;;;;;4981539;28;19918;-75
2022/05/14 11:20:59;;;;;;;;;;;;;;;;;;5015608;28;20007;-76
2022/05/14 11:23:24;;;;;;;;;;;;;;;;;;4981541;28;19924;-76
2022/05/14 11:26:04;;;;;;;;;;;;;;;;;;4981555;28;19917;-76
2022/05/14 11:28:30;;;;;;;;;;;;;;;;;;4997850;28;19917;-76
2022/05/14 11:31:08;;;;;;;;;;;;;;;;;;4981428;28;19921;-76
2022/05/14 11:33:34;;;;;;;;;;;;;;;;;;4997747;28;19949;-76
2022/05/14 11:36:05;;;;;;;;;;;;;;;;;;4981568;28;19917;-76
2022/05/14 11:38:33;;;;;;;;;;;;;;;;;;4980643;28;19917;-76
2022/05/14 11:40:58;;;;;;;;;;;;;;;;;;5015158;28;19917;-76
2022/05/14 11:43:26;;;;;;;;;;;;;;;;;;4981207;28;19932;-75
2022/05/14 11:45:57;;;;;;;;;;;;;;;;;;4981233;28;19956;-76
2022/05/14 11:48:25;;;;;;;;;;;;;;;;;;5003924;28;19918;-76
2022/05/14 11:51:10;;;;;;;;;;;;;;;;;;4961532;28;19922;-76
2022/05/14 11:53:48;;;;;;;;;;;;;;;;;;4974146;28;20333;-76
2022/05/14 11:56:19;;;;;;;;;;;;;;;;;;4974334;28;20016;-76
2022/05/14 11:58:54;;;;;;;;;;;;;;;;;;4974442;28;20037;-76
2022/05/14 12:01:22;;;;;;;;;;;;;;;;;;4988022;28;19917;-76
2022/05/14 12:03:47;;;;;;;;;;;;;;;;;;5028984;28;19959;-76
2022/05/14 12:06:25;;;;;;;;;;;;;;;;;;5034351;28;19921;-76
2022/05/14 12:09:02;;;;;;;;;;;;;;;;;;4998741;28;19963;-76
2022/05/14 12:11:31;;;;;;;;;;;;;;;;;;4997146;28;19979;-76
2022/05/14 12:14:01;;;;;;;;;;;;;;;;;;4996954;28;20288;-76
2022/05/14 12:16:34;;;;;;;;;;;;;;;;;;4996525;28;19918;-76
2022/05/14 12:19:01;;;;;;;;;;;;;;;;;;4996885;28;20384;-76
2022/05/14 12:21:28;;;;;;;;;;;;;;;;;;4980684;28;20040;-76
2022/05/14 12:23:53;;;;;;;;;;;;;;;;;;4996908;28;20007;-76
2022/05/14 12:26:18;;;;;;;;;;;;;;;;;;5014366;28;19956;-76
2022/05/14 12:28:44;;;;;;;;;;;;;;;;;;5014282;28;19921;-76
2022/05/14 12:33:55;;;;;;;;;;;;;;;;;;5014017;28;19961;-76
2022/05/14 12:36:21;;;;;;;;;;;;;;;;;;4996360;28;19925;-76
2022/05/14 12:38:47;;;;;;;;;;;;;;;;;;5013819;28;19917;-76
2022/05/14 12:41:32;;;;;;;;;;;;;;;;;;5014055;28;19921;-76
2022/05/14 12:44:04;;;;;;;;;;;;;;;;;;4996619;28;19968;-76
2022/05/14 12:46:30;;;;;;;;;;;;;;;;;;4996412;28;19960;-76
2022/05/14 12:48:57;;;;;;;;;;;;;;;;;;4984535;28;19986;-76
2022/05/14 12:51:23;;;;;;;;;;;;;;;;;;4992991;28;19922;-76
2022/05/14 12:53:50;;;;;;;;;;;;;;;;;;4957944;28;20036;-76
2022/05/14 12:56:17;;;;;;;;;;;;;;;;;;4994186;28;20527;-76
2022/05/14 12:58:42;;;;;;;;;;;;;;;;;;4976967;28;19925;-75
2022/05/14 13:01:08;;;;;;;;;;;;;;;;;;4994196;28;19917;-76
2022/05/14 13:03:34;;;;;;;;;;;;;;;;;;5016247;28;19971;-76
2022/05/14 13:06:20;;;;;;;;;;;;;;;;;;4999650;28;19917;-76
2022/05/14 13:08:47;;;;;;;;;;;;;;;;;;4985280;28;19959;-76
2022/05/14 13:11:17;;;;;;;;;;;;;;;;;;4996183;28;19917;-76
2022/05/14 13:13:45;;;;;;;;;;;;;;;;;;4995897;28;20024;-76
2022/05/14 13:16:13;;;;;;;;;;;;;;;;;;5014004;28;19961;-76
2022/05/14 13:18:54;;;;;;;;;;;;;;;;;;5006089;28;20377;-76
2022/05/14 13:21:20;;;;;;;;;;;;;;;;;;4999417;28;20387;-76
2022/05/14 13:23:54;;;;;;;;;;;;;;;;;;5015690;28;19979;-76
2022/05/14 13:26:31;;;;;;;;;;;;;;;;;;5015979;28;20004;-76
2022/05/14 13:29:17;;;;;;;;;;;;;;;;;;4979939;28;19923;-76
2022/05/14 13:31:44;;;;;;;;;;;;;;;;;;5013600;28;19925;-76
2022/05/14 13:37:07;;;;;;;;;;;;;;;;;;5015510;28;19921;-76
2022/05/14 13:39:36;;;;;;;;;;;;;;;;;;4997787;28;19924;-76
2022/05/14 13:42:01;;;;;;;;;;;;;;;;;;5013511;28;19917;-76
2022/05/14 13:44:26;;;;;;;;;;;;;;;;;;4976178;28;19921;-76
2022/05/14 13:46:56;;;;;;;;;;;;;;;;;;4992215;28;19924;-76
2022/05/14 13:49:28;;;;;;;;;;;;;;;;;;4995513;28;19995;-76
2022/05/14 13:51:56;;;;;;;;;;;;;;;;;;4997884;28;20025;-76
2022/05/14 13:54:32;;;;;;;;;;;;;;;;;;4995151;28;20322;-76
2022/05/14 13:57:03;;;;;;;;;;;;;;;;;;4991033;28;20035;-76
2022/05/14 13:59:33;;;;;;;;;;;;;;;;;;4993715;28;19918;-76
2022/05/14 14:02:16;;;;;;;;;;;;;;;;;;5008895;28;20367;-76
2022/05/14 14:04:42;;;;;;;;;;;;;;;;;;4991693;28;20391;-76
2022/05/14 14:07:10;;;;;;;;;;;;;;;;;;4997327;28;19918;-76
2022/05/14 14:09:36;;;;;;;;;;;;;;;;;;5012130;28;19927;-76
2022/05/14 14:12:02;;;;;;;;;;;;;;;;;;4997728;28;19973;-76
2022/05/14 14:14:27;;;;;;;;;;;;;;;;;;4992860;28;20338;-76
2022/05/14 14:16:53;;;;;;;;;;;;;;;;;;5015467;28;19929;-76
2022/05/14 14:19:18;;;;;;;;;;;;;;;;;;5023536;28;19917;-76
2022/05/14 14:21:44;;;;;;;;;;;;;;;;;;5036490;28;20378;-76
2022/05/14 14:24:13;;;;;;;;;;;;;;;;;;5034715;28;19928;-76
2022/05/14 14:26:39;;;;;;;;;;;;;;;;;;5036314;28;19917;-76
2022/05/14 14:29:04;;;;;;;;;;;;;;;;;;5025977;28;19943;-76
2022/05/14 14:31:30;;;;;;;;;;;;;;;;;;5008383;28;19917;-76
2022/05/14 14:33:55;;;;;;;;;;;;;;;;;;4994471;28;19924;-76
2022/05/14 14:36:23;;;;;;;;;;;;;;;;;;4988209;28;19918;-76
2022/05/14 14:38:48;;;;;;;;;;;;;;;;;;4979031;28;19965;-76
2022/05/14 14:41:14;;;;;;;;;;;;;;;;;;4995268;28;19972;-76
2022/05/14 14:43:39;;;;;;;;;;;;;;;;;;4994707;28;19999;-76
2022/05/14 14:46:06;;;;;;;;;;;;;;;;;;5008466;28;19975;-76
2022/05/14 14:48:33;;;;;;;;;;;;;;;;;;5009417;28;19925;-76
2022/05/14 14:50:59;;;;;;;;;;;;;;;;;;5014900;28;19975;-76
2022/05/14 14:53:25;;;;;;;;;;;;;;;;;;5008205;28;19921;-76
2022/05/14 14:55:50;;;;;;;;;;;;;;;;;;4998861;28;20429;-76
2022/05/14 14:58:15;;;;;;;;;;;;;;;;;;4998392;28;20278;-76
2022/05/14 15:00:43;;;;;;;;;;;;;;;;;;5016037;28;19918;-76
2022/05/14 15:03:23;;;;;;;;;;;;;;;;;;5015414;28;19924;-76
2022/05/14 15:05:51;;;;;;;;;;;;;;;;;;5014639;28;19968;-76
2022/05/14 15:08:17;;;;;;;;;;;;;;;;;;4997335;28;19918;-76
2022/05/14 15:10:42;;;;;;;;;;;;;;;;;;4997119;28;19927;-76
2022/05/14 15:13:10;;;;;;;;;;;;;;;;;;4996876;28;20017;-76
2022/05/14 15:15:35;;;;;;;;;;;;;;;;;;5014484;28;20268;-76
2022/05/14 15:18:01;;;;;;;;;;;;;;;;;;4998012;28;19967;-76
2022/05/14 15:20:27;;;;;;;;;;;;;;;;;;5014394;28;19918;-76
2022/05/14 15:22:52;;;;;;;;;;;;;;;;;;5014357;28;19924;-76
2022/05/14 15:25:17;;;;;;;;;;;;;;;;;;5015527;28;20397;-76
2022/05/14 15:27:43;;;;;;;;;;;;;;;;;;5013989;28;20359;-76
2022/05/14 15:30:09;;;;;;;;;;;;;;;;;;5013973;28;19930;-76
2022/05/14 15:32:35;;;;;;;;;;;;;;;;;;5010944;28;19917;-76
2022/05/14 15:35:00;;;;;;;;;;;;;;;;;;5033979;28;19917;-76
2022/05/14 15:37:26;;;;;;;;;;;;;;;;;;5035078;28;19923;-76
2022/05/14 15:39:52;;;;;;;;;;;;;;;;;;5017051;28;19917;-76
2022/05/14 15:42:19;;;;;;;;;;;;;;;;;;5017264;28;19924;-76
2022/05/14 15:44:50;;;;;;;;;;;;;;;;;;5025701;28;20404;-76
2022/05/14 15:47:19;;;;;;;;;;;;;;;;;;4997911;28;19918;-76
2022/05/14 15:49:45;;;;;;;;;;;;;;;;;;5014796;28;19921;-76
2022/05/14 15:52:11;;;;;;;;;;;;;;;;;;5014860;28;19988;-75
2022/05/14 15:54:37;;;;;;;;;;;;;;;;;;5013861;28;20355;-76
2022/05/14 15:57:04;;;;;;;;;;;;;;;;;;4997156;28;20315;-76
2022/05/14 15:59:30;;;;;;;;;;;;;;;;;;5014781;28;19917;-75
2022/05/14 16:01:55;;;;;;;;;;;;;;;;;;5013437;28;19918;-76
2022/05/14 16:04:21;;;;;;;;;;;;;;;;;;4997090;28;19918;-76
2022/05/14 16:06:46;;;;;;;;;;;;;;;;;;5014563;28;19917;-76
2022/05/14 16:09:12;;;;;;;;;;;;;;;;;;5015642;28;19979;-76
2022/05/14 16:17:05;;;;;;;;;;;;;;;;;;5034122;28;19925;-76
2022/05/14 16:19:31;;;;;;;;;;;;;;;;;;5000150;28;19917;-76
2022/05/14 16:21:56;;;;;;;;;;;;;;;;;;5000093;28;20268;-76
2022/05/14 16:24:23;;;;;;;;;;;;;;;;;;4999700;28;19917;-76
2022/05/14 16:26:49;;;;;;;;;;;;;;;;;;5016499;28;19986;-76
2022/05/14 16:29:14;;;;;;;;;;;;;;;;;;4999958;28;20359;-76
2022/05/14 16:31:41;;;;;;;;;;;;;;;;;;5015741;28;20363;-76
2022/05/14 16:34:06;;;;;;;;;;;;;;;;;;5034574;28;19917;-76
2022/05/14 16:36:32;;;;;;;;;;;;;;;;;;5015977;28;19924;-76
2022/05/14 16:38:59;;;;;;;;;;;;;;;;;;4999891;28;19917;-76
2022/05/14 16:41:25;;;;;;;;;;;;;;;;;;4999870;28;19967;-76
2022/05/14 16:43:50;;;;;;;;;;;;;;;;;;5010241;28;19921;-75
2022/05/14 16:46:15;;;;;;;;;;;;;;;;;;5014136;28;20350;-76
2022/05/14 16:48:43;;;;;;;;;;;;;;;;;;4996487;28;19918;-75
2022/05/14 16:51:09;;;;;;;;;;;;;;;;;;4996441;28;20012;-76
2022/05/14 16:53:38;;;;;;;;;;;;;;;;;;5014080;28;19953;-76
2022/05/14 16:56:15;;;;;;;;;;;;;;;;;;5013063;28;20379;-75
2022/05/14 16:58:41;;;;;;;;;;;;;;;;;;5031825;28;19923;-76
2022/05/14 17:01:07;;;;;;;;;;;;;;;;;;4999476;28;19916;-76
2022/05/14 17:03:33;;;;;;;;;;;;;;;;;;5033831;28;19913;-76
2022/05/14 17:05:58;;;;;;;;;;;;;;;;;;5014718;28;19917;-75
2022/05/14 17:08:24;;;;;;;;;;;;;;;;;;5033349;28;19921;-76
2022/05/14 17:10:50;;;;;;;;;;;;;;;;;;4999657;28;20015;-76
2022/05/14 17:13:16;;;;;;;;;;;;;;;;;;4999509;28;19931;-76
2022/05/14 17:15:43;;;;;;;;;;;;;;;;;;5000945;28;19917;-76
2022/05/14 17:18:10;;;;;;;;;;;;;;;;;;4996050;28;20011;-76
2022/05/14 17:20:36;;;;;;;;;;;;;;;;;;5013738;28;19940;-76